createdAt,value
2022-10-23T00:02:54.823Z,92.03
2022-10-23T00:07:57.896Z,92.75
2022-10-23T00:12:58.619Z,92.32
2022-10-23T00:18:00.789Z,92.14
2022-10-23T00:23:01.568Z,92.37
2022-10-23T00:28:02.277Z,92.22
2022-10-23T00:33:04.559Z,91.39
2022-10-23T00:38:05.302Z,92.17
2022-10-23T00:43:08.020Z,92.48
2022-10-23T00:48:10.162Z,92.25
2022-10-23T00:53:13.014Z,92.35
2022-10-23T00:58:13.911Z,92.41
2022-10-23T01:03:18.678Z,92.74
2022-10-23T01:08:28.236Z,92.39
2022-10-23T01:13:36.833Z,92.24
2022-10-23T01:18:45.543Z,92.60
2022-10-23T01:24:08.922Z,92.15
2022-10-23T01:29:17.259Z,92.50
2022-10-23T01:34:23.874Z,92.51
2022-10-23T01:39:28.756Z,92.79
2022-10-23T01:44:37.375Z,92.09
2022-10-23T01:49:40.291Z,92.60
2022-10-23T01:54:44.965Z,92.75
2022-10-23T01:59:52.133Z,92.42
2022-10-23T02:04:58.077Z,92.19
2022-10-23T02:09:59.483Z,92.56
2022-10-23T02:15:10.622Z,93.01
2022-10-23T02:20:19.188Z,92.59
2022-10-23T02:25:29.212Z,92.92
2022-10-23T02:30:33.634Z,92.52
2022-10-23T02:35:42.886Z,92.09
2022-10-23T02:40:59.126Z,92.15
2022-10-23T02:46:11.334Z,92.18
2022-10-23T02:51:18.638Z,93.05
2022-10-23T02:56:24.123Z,92.64
2022-10-23T03:01:30.479Z,92.09
2022-10-23T03:06:31.451Z,92.54
2022-10-23T03:11:32.368Z,93.16
2022-10-23T03:16:34.509Z,92.75
2022-10-23T03:21:36.220Z,92.87
2022-10-23T03:26:41.179Z,92.88
2022-10-23T03:31:43.360Z,92.74
2022-10-23T03:36:44.189Z,93.36
2022-10-23T03:41:45.166Z,93.14
2022-10-23T03:46:50.382Z,92.81
2022-10-23T03:51:52.719Z,92.80
2022-10-23T03:56:57.531Z,93.37
2022-10-23T04:02:01.318Z,93.10
2022-10-23T04:07:02.179Z,93.01
2022-10-23T04:12:03.260Z,93.04
2022-10-23T04:17:05.542Z,93.19
2022-10-23T04:22:06.313Z,93.27
2022-10-23T04:27:07.722Z,93.27
2022-10-23T04:32:09.815Z,93.61
2022-10-23T04:37:10.968Z,93.08
2022-10-23T04:42:12.521Z,93.03
2022-10-23T04:47:15.400Z,93.19
2022-10-23T04:52:28.876Z,93.28
2022-10-23T04:57:48.036Z,93.30
2022-10-23T05:02:51.543Z,93.77
2022-10-23T05:07:53.624Z,93.48
2022-10-23T05:13:21.026Z,93.40
2022-10-23T05:18:27.348Z,93.41
2022-10-23T05:23:29.956Z,93.47
2022-10-23T05:28:34.784Z,93.41
2022-10-23T05:33:38.078Z,93.67
2022-10-23T05:38:39.185Z,93.60
2022-10-23T05:43:47.226Z,94.01
2022-10-23T05:49:27.682Z,93.90
2022-10-23T05:55:04.512Z,93.59
2022-10-23T06:00:22.321Z,94.17
2022-10-23T06:05:37.460Z,93.53
2022-10-23T06:10:50.288Z,93.63
2022-10-23T06:15:52.377Z,93.60
2022-10-23T06:20:57.279Z,93.53
2022-10-23T06:26:00.627Z,93.67
2022-10-23T06:31:30.676Z,93.55
2022-10-23T06:36:33.449Z,92.99
2022-10-23T06:41:54.448Z,92.66
2022-10-23T06:47:30.295Z,92.49
2022-10-23T06:52:48.051Z,91.61
2022-10-23T06:57:51.656Z,91.99
2022-10-23T07:02:53.517Z,91.79
2022-10-23T07:07:55.676Z,91.41
2022-10-23T07:13:01.128Z,90.05
2022-10-23T07:18:05.712Z,90.19
2022-10-23T07:23:27.807Z,90.65
2022-10-23T07:28:29.458Z,89.91
2022-10-23T07:33:30.275Z,90.08
2022-10-23T07:38:38.100Z,88.14
2022-10-23T07:43:39.296Z,88.70
2022-10-23T07:48:40.836Z,87.91
2022-10-23T07:53:44.172Z,88.08
2022-10-23T07:59:05.302Z,87.44
2022-10-23T08:04:07.256Z,86.65
2022-10-23T08:09:14.002Z,86.13
2022-10-23T08:14:16.379Z,86.04
2022-10-23T08:19:19.596Z,85.12
2022-10-23T08:24:24.671Z,85.67
2022-10-23T08:29:25.888Z,84.44
2022-10-23T08:34:28.618Z,82.84
2022-10-23T08:39:31.147Z,83.15
2022-10-23T08:44:51.245Z,81.72
2022-10-23T08:50:00.234Z,81.46
2022-10-23T08:55:12.203Z,80.78
2022-10-23T09:00:15.905Z,79.98
2022-10-23T09:05:20.502Z,78.60
2022-10-23T09:10:35.274Z,77.84
2022-10-23T09:15:41.729Z,77.58
2022-10-23T09:20:45.144Z,76.86
2022-10-23T09:25:48.987Z,75.94
2022-10-23T09:30:50.411Z,74.53
2022-10-23T09:35:59.665Z,74.37
2022-10-23T09:41:07.087Z,73.78
2022-10-23T09:46:09.750Z,72.80
2022-10-23T09:51:19.327Z,73.19
2022-10-23T09:56:31.152Z,71.76
2022-10-23T10:01:36.202Z,71.77
2022-10-23T10:07:20.364Z,72.27
2022-10-23T10:12:46.132Z,71.94
2022-10-23T10:17:58.679Z,72.28
2022-10-23T10:23:07.146Z,72.66
2022-10-23T10:28:27.877Z,72.11
2022-10-23T10:33:37.476Z,71.19
2022-10-23T10:38:47.773Z,70.36
2022-10-23T10:44:07.927Z,70.38
2022-10-23T10:49:14.077Z,70.55
2022-10-23T10:54:58.927Z,69.91
2022-10-23T11:00:05.529Z,69.50
2022-10-23T11:05:28.024Z,69.06
2022-10-23T11:10:29.342Z,68.78
2022-10-23T11:15:42.089Z,69.11
2022-10-23T11:20:55.957Z,67.89
2022-10-23T11:26:11.112Z,67.90
2022-10-23T11:31:25.616Z,68.56
2022-10-23T11:36:43.961Z,69.90
2022-10-23T11:41:51.051Z,68.76
2022-10-23T11:47:02.321Z,69.76
2022-10-23T11:52:05.027Z,69.86
2022-10-23T11:57:12.714Z,70.35
2022-10-23T12:02:28.783Z,71.05
2022-10-23T12:07:31.873Z,70.98
2022-10-23T12:12:35.235Z,72.05
2022-10-23T12:17:40.167Z,71.79
2022-10-23T12:22:46.407Z,71.89
2022-10-23T12:27:53.811Z,71.57
2022-10-23T12:33:14.482Z,71.33
2022-10-23T12:38:17.539Z,70.63
2022-10-23T12:43:27.420Z,70.05
2022-10-23T12:48:29.544Z,70.34
2022-10-23T12:53:30.298Z,70.13
2022-10-23T12:58:33.180Z,69.15
2022-10-23T13:03:39.637Z,68.42
2022-10-23T13:08:43.373Z,69.10
2022-10-23T13:14:12.816Z,69.02
2022-10-23T13:19:26.967Z,68.33
2022-10-23T13:24:29.941Z,68.04
2022-10-23T13:29:34.412Z,69.38
2022-10-23T13:34:36.617Z,69.68
2022-10-23T13:39:37.536Z,69.17
2022-10-23T13:44:38.605Z,67.93
2022-10-23T13:49:40.806Z,67.60
2022-10-23T13:54:43.560Z,66.67
2022-10-23T13:59:44.592Z,66.61
2022-10-23T14:04:47.225Z,68.23
2022-10-23T14:09:50.444Z,68.08
2022-10-23T14:14:52.168Z,68.84
2022-10-23T14:19:55.531Z,69.81
2022-10-23T14:24:56.414Z,70.53
2022-10-23T14:29:57.419Z,69.93
2022-10-23T14:34:59.573Z,69.72
2022-10-23T14:40:00.909Z,70.31
2022-10-23T14:45:02.555Z,71.24
2022-10-23T14:50:05.544Z,70.41
2022-10-23T14:55:06.846Z,71.64
2022-10-23T15:00:08.736Z,72.80
2022-10-23T15:05:11.014Z,72.88
2022-10-23T15:10:12.061Z,73.41
2022-10-23T15:15:12.905Z,73.43
2022-10-23T15:20:15.126Z,74.04
2022-10-23T15:25:18.054Z,74.53
2022-10-23T15:30:19.136Z,75.37
2022-10-23T15:35:21.279Z,75.76
2022-10-23T15:40:22.183Z,76.25
2022-10-23T15:45:25.511Z,76.03
2022-10-23T15:50:29.947Z,76.78
2022-10-23T15:55:30.868Z,76.53
2022-10-23T16:00:35.864Z,76.63
2022-10-23T16:05:38.384Z,76.24
2022-10-23T16:10:40.262Z,76.90
2022-10-23T16:15:41.026Z,76.36
2022-10-23T16:20:43.316Z,76.87
2022-10-23T16:25:44.067Z,76.66
2022-10-23T16:30:46.270Z,76.83
2022-10-23T16:35:48.477Z,77.10
2022-10-23T16:40:54.870Z,76.71
2022-10-23T16:46:15.775Z,76.81
2022-10-23T16:51:19.859Z,77.26
2022-10-23T16:56:22.337Z,77.48
2022-10-23T17:01:24.894Z,77.58
2022-10-23T17:06:29.617Z,77.44
2022-10-23T17:11:31.766Z,77.06
2022-10-23T17:16:36.628Z,76.96
2022-10-23T17:21:41.063Z,77.96
2022-10-23T17:26:43.860Z,77.70
2022-10-23T17:31:46.682Z,78.29
2022-10-23T17:36:50.830Z,78.92
2022-10-23T17:41:52.301Z,78.98
2022-10-23T17:46:54.291Z,79.53
2022-10-23T17:51:58.203Z,79.85
2022-10-23T17:56:58.976Z,80.67
2022-10-23T18:02:00.828Z,80.46
2022-10-23T18:07:03.134Z,81.78
2022-10-23T18:12:05.238Z,81.52
2022-10-23T18:17:10.763Z,82.14
2022-10-23T18:22:13.047Z,82.57
2022-10-23T18:27:13.821Z,82.59
2022-10-23T18:32:14.719Z,82.96
2022-10-23T18:37:16.883Z,84.03
2022-10-23T18:42:17.725Z,84.35
2022-10-23T18:47:18.528Z,83.93
2022-10-23T18:52:20.724Z,83.48
2022-10-23T18:57:21.560Z,83.51
2022-10-23T19:02:22.546Z,84.25
2022-10-23T19:07:24.832Z,84.65
2022-10-23T19:12:25.661Z,84.02
2022-10-23T19:17:30.925Z,84.38
2022-10-23T19:22:37.075Z,84.74
2022-10-23T19:27:40.702Z,84.34
2022-10-23T19:32:41.995Z,85.05
2022-10-23T19:37:44.533Z,84.57
2022-10-23T19:42:45.581Z,84.99
2022-10-23T19:47:47.855Z,84.94
2022-10-23T19:52:50.043Z,85.56
2022-10-23T19:57:50.811Z,85.52
2022-10-23T20:02:54.412Z,84.38
2022-10-23T20:07:57.546Z,84.25
2022-10-23T20:13:15.120Z,84.14
2022-10-23T20:18:19.047Z,83.65
2022-10-23T20:23:21.246Z,83.20
2022-10-23T20:28:22.291Z,82.46
2022-10-23T20:33:23.459Z,82.54
2022-10-23T20:38:25.596Z,81.62
2022-10-23T20:43:26.363Z,81.21
2022-10-23T20:48:27.273Z,81.28
2022-10-23T20:53:29.363Z,80.95
2022-10-23T20:58:30.133Z,80.69
2022-10-23T21:03:30.928Z,80.37
2022-10-23T21:08:33.388Z,80.39
2022-10-23T21:13:34.511Z,80.55
2022-10-23T21:18:45.597Z,80.24
2022-10-23T21:23:51.173Z,79.93
2022-10-23T21:28:56.377Z,80.42
2022-10-23T21:34:07.703Z,80.50
2022-10-23T21:39:10.226Z,82.35
2022-10-23T21:44:13.719Z,84.06
2022-10-23T21:49:14.482Z,85.43
2022-10-23T21:54:16.576Z,86.69
2022-10-23T21:59:19.662Z,87.15
2022-10-23T22:04:22.063Z,87.66
2022-10-23T22:09:24.495Z,88.81
2022-10-23T22:14:25.255Z,88.69
2022-10-23T22:19:26.535Z,89.95
2022-10-23T22:24:28.731Z,90.09
2022-10-23T22:29:30.872Z,90.29
2022-10-23T22:34:51.848Z,91.15
2022-10-23T22:39:54.213Z,91.50
2022-10-23T22:44:54.934Z,91.16
2022-10-23T22:49:55.728Z,91.34
2022-10-23T22:54:57.788Z,91.75
2022-10-23T22:59:58.576Z,91.91
2022-10-23T23:04:59.363Z,92.01
2022-10-23T23:10:01.507Z,91.73
2022-10-23T23:15:02.331Z,91.91
2022-10-23T23:20:03.133Z,92.76
2022-10-23T23:25:05.784Z,92.74
2022-10-23T23:30:08.389Z,92.38
2022-10-23T23:35:09.912Z,92.16
2022-10-23T23:40:13.585Z,91.69
2022-10-23T23:45:15.199Z,91.87
2022-10-23T23:50:16.519Z,91.66
2022-10-23T23:55:18.828Z,92.06
